sensor_id;sensor_type;location;lat;lon;timestamp;pressure;altitude;pressure_sealevel;temperature;humidity
40920;BME280;26652;50.280;19.026;2024-02-26T00:00:22;149571.38;;;7.08;77.17
40920;BME280;26652;50.280;19.026;2024-02-26T00:02:43;149533.25;;;6.93;77.53
40920;BME280;26652;50.280;19.026;2024-02-26T00:04:44;149511.13;;;6.83;78.48
40920;BME280;26652;50.280;19.026;2024-02-26T00:06:44;149466.88;;;6.65;78.22
40920;BME280;26652;50.280;19.026;2024-02-26T00:08:45;149438.59;;;6.53;79.20
40920;BME280;26652;50.280;19.026;2024-02-26T00:10:46;149452.13;;;6.59;79.33
40920;BME280;26652;50.280;19.026;2024-02-26T00:12:48;149445.97;;;6.56;79.71
40920;BME280;26652;50.280;19.026;2024-02-26T00:14:48;149409.09;;;6.41;80.74
40920;BME280;26652;50.280;19.026;2024-02-26T00:16:50;149401.72;;;6.38;80.78
40920;BME280;26652;50.280;19.026;2024-02-26T00:18:50;149430.00;;;6.50;80.38
40920;BME280;26652;50.280;19.026;2024-02-26T00:20:51;149432.47;;;6.51;80.60
40920;BME280;26652;50.280;19.026;2024-02-26T00:22:52;149425.09;;;6.48;80.95
40920;BME280;26652;50.280;19.026;2024-02-26T00:24:52;149411.56;;;6.42;80.50
40920;BME280;26652;50.280;19.026;2024-02-26T00:26:53;149391.91;;;6.34;80.50
40920;BME280;26652;50.280;19.026;2024-02-26T00:28:54;149385.75;;;6.32;80.60
40920;BME280;26652;50.280;19.026;2024-02-26T00:30:55;149425.09;;;6.48;79.85
40920;BME280;26652;50.280;19.026;2024-02-26T00:32:56;149438.59;;;6.53;79.86
40920;BME280;26652;50.280;19.026;2024-02-26T00:34:57;149434.91;;;6.52;79.51
40920;BME280;26652;50.280;19.026;2024-02-26T00:36:58;149415.25;;;6.44;79.94
40920;BME280;26652;50.280;19.026;2024-02-26T00:38:58;149367.31;;;6.24;82.01
40920;BME280;26652;50.280;19.026;2024-02-26T00:40:59;149340.34;;;6.13;81.95
40920;BME280;26652;50.280;19.026;2024-02-26T00:43:00;149313.31;;;6.02;82.53
40920;BME280;26652;50.280;19.026;2024-02-26T00:45:00;149317.00;;;6.03;82.31
40920;BME280;26652;50.280;19.026;2024-02-26T00:47:01;149293.66;;;5.94;83.14
40920;BME280;26652;50.280;19.026;2024-02-26T00:49:02;149266.56;;;5.82;83.00
40920;BME280;26652;50.280;19.026;2024-02-26T00:51:03;149286.28;;;5.90;82.85
40920;BME280;26652;50.280;19.026;2024-02-26T00:53:08;149260.44;;;5.80;83.21
40920;BME280;26652;50.280;19.026;2024-02-26T00:55:09;149309.63;;;6.00;83.30
40920;BME280;26652;50.280;19.026;2024-02-26T00:57:09;149291.19;;;5.93;83.10
40920;BME280;26652;50.280;19.026;2024-02-26T00:59:10;149272.72;;;5.85;83.23
40920;BME280;26652;50.280;19.026;2024-02-26T01:01:11;149261.66;;;5.80;83.85
40920;BME280;26652;50.280;19.026;2024-02-26T01:03:12;149269.03;;;5.83;85.05
40920;BME280;26652;50.280;19.026;2024-02-26T01:05:13;149293.66;;;5.94;83.77
40920;BME280;26652;50.280;19.026;2024-02-26T01:07:14;149266.56;;;5.82;84.00
40920;BME280;26652;50.280;19.026;2024-02-26T01:09:14;149253.06;;;5.77;84.65
40920;BME280;26652;50.280;19.026;2024-02-26T01:11:16;149229.72;;;5.67;84.70
40920;BME280;26652;50.280;19.026;2024-02-26T01:13:16;149257.97;;;5.79;84.73
40920;BME280;26652;50.280;19.026;2024-02-26T01:15:17;149257.97;;;5.79;84.52
40920;BME280;26652;50.280;19.026;2024-02-26T01:17:22;149323.13;;;6.06;83.33
40920;BME280;26652;50.280;19.026;2024-02-26T01:19:23;149329.28;;;6.08;82.57
40920;BME280;26652;50.280;19.026;2024-02-26T01:21:23;149276.41;;;5.86;84.36
40920;BME280;26652;50.280;19.026;2024-02-26T01:23:24;149288.75;;;5.92;83.90
40920;BME280;26652;50.280;19.026;2024-02-26T01:25:25;149255.53;;;5.78;84.92
40920;BME280;26652;50.280;19.026;2024-02-26T01:27:26;149324.38;;;6.06;84.37
40920;BME280;26652;50.280;19.026;2024-02-26T01:29:27;149298.56;;;5.96;85.42
40920;BME280;26652;50.280;19.026;2024-02-26T01:31:28;149310.84;;;6.01;84.03
40920;BME280;26652;50.280;19.026;2024-02-26T01:33:28;149305.94;;;5.99;83.92
40920;BME280;26652;50.280;19.026;2024-02-26T01:35:29;149271.50;;;5.84;83.54
40920;BME280;26652;50.280;19.026;2024-02-26T01:37:30;149299.78;;;5.96;82.19
40920;BME280;26652;50.280;19.026;2024-02-26T01:39:31;149326.81;;;6.07;82.63
40920;BME280;26652;50.280;19.026;2024-02-26T01:41:31;149313.31;;;6.02;82.35
40920;BME280;26652;50.280;19.026;2024-02-26T01:43:32;149246.91;;;5.74;84.56
40920;BME280;26652;50.280;19.026;2024-02-26T01:45:33;149276.41;;;5.86;84.83
40920;BME280;26652;50.280;19.026;2024-02-26T01:47:33;149229.72;;;5.67;84.81
40920;BME280;26652;50.280;19.026;2024-02-26T01:49:34;149227.28;;;5.66;85.41
40920;BME280;26652;50.280;19.026;2024-02-26T01:51:36;149262.88;;;5.81;86.15
40920;BME280;26652;50.280;19.026;2024-02-26T01:53:36;149239.56;;;5.71;84.46
40920;BME280;26652;50.280;19.026;2024-02-26T01:55:38;149245.69;;;5.74;83.86
40920;BME280;26652;50.280;19.026;2024-02-26T01:57:39;149256.75;;;5.78;84.19
40920;BME280;26652;50.280;19.026;2024-02-26T01:59:40;149302.25;;;5.97;84.35
40920;BME280;26652;50.280;19.026;2024-02-26T02:01:44;149326.81;;;6.07;84.39
40920;BME280;26652;50.280;19.026;2024-02-26T02:03:46;149254.28;;;5.77;86.21
40920;BME280;26652;50.280;19.026;2024-02-26T02:05:47;149248.16;;;5.75;86.09
40920;BME280;26652;50.280;19.026;2024-02-26T02:07:48;149222.34;;;5.64;85.21
40920;BME280;26652;50.280;19.026;2024-02-26T02:09:48;149199.03;;;5.54;85.01
40920;BME280;26652;50.280;19.026;2024-02-26T02:11:49;149226.03;;;5.66;84.94
40920;BME280;26652;50.280;19.026;2024-02-26T02:13:50;149243.25;;;5.73;84.96
40920;BME280;26652;50.280;19.026;2024-02-26T02:15:51;149238.31;;;5.71;84.91
40920;BME280;26652;50.280;19.026;2024-02-26T02:17:52;149237.09;;;5.70;84.85
40920;BME280;26652;50.280;19.026;2024-02-26T02:19:53;149251.84;;;5.76;85.42
40920;BME280;26652;50.280;19.026;2024-02-26T02:21:53;149207.63;;;5.58;86.05
40920;BME280;26652;50.280;19.026;2024-02-26T02:23:54;149243.25;;;5.73;85.71
40920;BME280;26652;50.280;19.026;2024-02-26T02:25:56;149217.44;;;5.62;86.39
40920;BME280;26652;50.280;19.026;2024-02-26T02:27:57;149243.25;;;5.73;86.23
40920;BME280;26652;50.280;19.026;2024-02-26T02:29:58;149226.03;;;5.66;86.36
40920;BME280;26652;50.280;19.026;2024-02-26T02:31:59;149224.81;;;5.65;86.19
40920;BME280;26652;50.280;19.026;2024-02-26T02:34:01;149222.34;;;5.64;86.75
40920;BME280;26652;50.280;19.026;2024-02-26T02:36:02;149230.94;;;5.68;86.95
40920;BME280;26652;50.280;19.026;2024-02-26T02:38:03;149272.72;;;5.85;86.22
40920;BME280;26652;50.280;19.026;2024-02-26T02:40:05;149301.03;;;5.97;86.30
40920;BME280;26652;50.280;19.026;2024-02-26T02:42:05;149312.09;;;6.01;85.98
40920;BME280;26652;50.280;19.026;2024-02-26T02:44:06;149289.97;;;5.92;85.04
40920;BME280;26652;50.280;19.026;2024-02-26T02:46:07;149335.44;;;6.11;84.26
40920;BME280;26652;50.280;19.026;2024-02-26T02:48:08;149379.63;;;6.29;84.35
40920;BME280;26652;50.280;19.026;2024-02-26T02:50:08;149363.69;;;6.22;84.06
40920;BME280;26652;50.280;19.026;2024-02-26T02:52:09;149371.00;;;6.26;83.80
40920;BME280;26652;50.280;19.026;2024-02-26T02:54:10;149425.09;;;6.48;83.62
40920;BME280;26652;50.280;19.026;2024-02-26T02:56:11;149409.09;;;6.41;83.40
40920;BME280;26652;50.280;19.026;2024-02-26T02:58:11;149421.41;;;6.46;83.30
40920;BME280;26652;50.280;19.026;2024-02-26T03:00:12;149405.41;;;6.40;82.89
40920;BME280;26652;50.280;19.026;2024-02-26T03:02:13;149402.97;;;6.39;83.88
40920;BME280;26652;50.280;19.026;2024-02-26T03:04:14;149422.63;;;6.47;83.33
40920;BME280;26652;50.280;19.026;2024-02-26T03:06:15;149407.88;;;6.41;83.42
40920;BME280;26652;50.280;19.026;2024-02-26T03:08:15;149405.41;;;6.40;83.64
40920;BME280;26652;50.280;19.026;2024-02-26T03:10:16;149385.75;;;6.32;83.66
40920;BME280;26652;50.280;19.026;2024-02-26T03:12:17;149384.53;;;6.31;83.96
40920;BME280;26652;50.280;19.026;2024-02-26T03:14:18;149406.66;;;6.40;83.50
40920;BME280;26652;50.280;19.026;2024-02-26T03:16:19;149380.84;;;6.30;83.91
40920;BME280;26652;50.280;19.026;2024-02-26T03:18:19;149369.78;;;6.25;83.98
40920;BME280;26652;50.280;19.026;2024-02-26T03:20:20;149395.59;;;6.36;83.89
40920;BME280;26652;50.280;19.026;2024-02-26T03:22:20;149430.00;;;6.50;83.11
40920;BME280;26652;50.280;19.026;2024-02-26T03:24:21;149427.53;;;6.49;82.92
40920;BME280;26652;50.280;19.026;2024-02-26T03:26:22;149433.69;;;6.51;82.25
40920;BME280;26652;50.280;19.026;2024-02-26T03:28:23;149389.44;;;6.33;82.66
40920;BME280;26652;50.280;19.026;2024-02-26T03:30:24;149337.88;;;6.12;83.87
40920;BME280;26652;50.280;19.026;2024-02-26T03:32:25;149336.66;;;6.11;83.11
40920;BME280;26652;50.280;19.026;2024-02-26T03:34:25;149341.56;;;6.13;82.80
40920;BME280;26652;50.280;19.026;2024-02-26T03:36:27;149347.72;;;6.16;82.49
40920;BME280;26652;50.280;19.026;2024-02-26T03:38:31;149331.75;;;6.09;82.17
40920;BME280;26652;50.280;19.026;2024-02-26T03:40:31;149350.16;;;6.17;81.82
40920;BME280;26652;50.280;19.026;2024-02-26T03:42:33;149355.09;;;6.19;82.13
40920;BME280;26652;50.280;19.026;2024-02-26T03:44:33;149298.56;;;5.96;82.49
40920;BME280;26652;50.280;19.026;2024-02-26T03:46:34;149261.66;;;5.80;82.18
40920;BME280;26652;50.280;19.026;2024-02-26T03:48:35;149255.53;;;5.78;82.36
40920;BME280;26652;50.280;19.026;2024-02-26T03:50:36;149270.25;;;5.84;82.25
40920;BME280;26652;50.280;19.026;2024-02-26T03:52:36;149270.25;;;5.84;82.34
40920;BME280;26652;50.280;19.026;2024-02-26T03:54:37;149266.56;;;5.82;83.52
40920;BME280;26652;50.280;19.026;2024-02-26T03:56:38;149243.25;;;5.73;83.96
40920;BME280;26652;50.280;19.026;2024-02-26T03:58:38;149242.00;;;5.72;85.31
40920;BME280;26652;50.280;19.026;2024-02-26T04:00:39;149272.72;;;5.85;85.31
40920;BME280;26652;50.280;19.026;2024-02-26T04:02:40;149297.34;;;5.95;85.64
40920;BME280;26652;50.280;19.026;2024-02-26T04:04:40;149269.03;;;5.83;86.11
40920;BME280;26652;50.280;19.026;2024-02-26T04:06:45;149280.09;;;5.88;85.63
40920;BME280;26652;50.280;19.026;2024-02-26T04:08:47;149269.03;;;5.83;84.61
40920;BME280;26652;50.280;19.026;2024-02-26T04:10:47;149312.09;;;6.01;84.09
40920;BME280;26652;50.280;19.026;2024-02-26T04:12:48;149297.34;;;5.95;84.71
40920;BME280;26652;50.280;19.026;2024-02-26T04:14:48;149331.75;;;6.09;84.51
40920;BME280;26652;50.280;19.026;2024-02-26T04:16:49;149299.78;;;5.96;84.31
40920;BME280;26652;50.280;19.026;2024-02-26T04:18:52;149310.84;;;6.01;84.15
40920;BME280;26652;50.280;19.026;2024-02-26T04:20:54;149307.16;;;5.99;84.08
40920;BME280;26652;50.280;19.026;2024-02-26T04:22:54;149255.53;;;5.78;84.45
40920;BME280;26652;50.280;19.026;2024-02-26T04:24:55;149277.63;;;5.87;84.38
40920;BME280;26652;50.280;19.026;2024-02-26T04:26:56;149287.50;;;5.91;84.30
40920;BME280;26652;50.280;19.026;2024-02-26T04:28:56;149271.50;;;5.84;84.14
40920;BME280;26652;50.280;19.026;2024-02-26T04:30:57;149272.72;;;5.85;84.36
40920;BME280;26652;50.280;19.026;2024-02-26T04:32:58;149296.09;;;5.95;84.32
40920;BME280;26652;50.280;19.026;2024-02-26T04:34:58;149298.56;;;5.96;84.42
40920;BME280;26652;50.280;19.026;2024-02-26T04:36:59;149292.41;;;5.93;84.19
40920;BME280;26652;50.280;19.026;2024-02-26T04:38:59;149289.97;;;5.92;84.43
40920;BME280;26652;50.280;19.026;2024-02-26T04:41:00;149278.88;;;5.87;84.95
40920;BME280;26652;50.280;19.026;2024-02-26T04:43:01;149283.81;;;5.89;84.93
40920;BME280;26652;50.280;19.026;2024-02-26T04:45:02;149277.63;;;5.87;84.93
40920;BME280;26652;50.280;19.026;2024-02-26T04:47:03;149276.41;;;5.86;84.86
40920;BME280;26652;50.280;19.026;2024-02-26T04:49:03;149266.56;;;5.82;85.36
40920;BME280;26652;50.280;19.026;2024-02-26T04:51:04;149285.06;;;5.90;85.09
40920;BME280;26652;50.280;19.026;2024-02-26T04:53:05;149269.03;;;5.83;84.70
40920;BME280;26652;50.280;19.026;2024-02-26T04:55:06;149286.28;;;5.90;84.34
40920;BME280;26652;50.280;19.026;2024-02-26T04:57:07;149285.06;;;5.90;84.59
40920;BME280;26652;50.280;19.026;2024-02-26T04:59:07;149273.94;;;5.85;84.48
40920;BME280;26652;50.280;19.026;2024-02-26T05:01:08;149257.97;;;5.79;84.44
40920;BME280;26652;50.280;19.026;2024-02-26T05:03:10;149280.09;;;5.88;84.26
40920;BME280;26652;50.280;19.026;2024-02-26T05:05:16;149251.84;;;5.76;84.48
40920;BME280;26652;50.280;19.026;2024-02-26T05:07:16;149250.59;;;5.76;84.23
40920;BME280;26652;50.280;19.026;2024-02-26T05:09:20;149281.31;;;5.88;83.86
40920;BME280;26652;50.280;19.026;2024-02-26T05:11:20;149266.56;;;5.82;83.61
40920;BME280;26652;50.280;19.026;2024-02-26T05:13:21;149255.53;;;5.78;83.67
40920;BME280;26652;50.280;19.026;2024-02-26T05:15:22;149226.03;;;5.66;84.55
40920;BME280;26652;50.280;19.026;2024-02-26T05:17:22;149248.16;;;5.75;84.65
40920;BME280;26652;50.280;19.026;2024-02-26T05:19:23;149232.19;;;5.68;83.27
40920;BME280;26652;50.280;19.026;2024-02-26T05:21:24;149244.47;;;5.73;82.99
40920;BME280;26652;50.280;19.026;2024-02-26T05:23:25;149207.63;;;5.58;82.66
40920;BME280;26652;50.280;19.026;2024-02-26T05:25:26;149164.63;;;5.40;83.51
40920;BME280;26652;50.280;19.026;2024-02-26T05:27:27;149144.97;;;5.32;83.36
40920;BME280;26652;50.280;19.026;2024-02-26T05:29:27;149122.88;;;5.23;84.00
40920;BME280;26652;50.280;19.026;2024-02-26T05:31:28;149111.88;;;5.18;84.65
40920;BME280;26652;50.280;19.026;2024-02-26T05:33:29;149103.28;;;5.15;84.43
40920;BME280;26652;50.280;19.026;2024-02-26T05:35:29;149091.00;;;5.10;84.07
40920;BME280;26652;50.280;19.026;2024-02-26T05:37:30;149056.63;;;4.96;84.66
40920;BME280;26652;50.280;19.026;2024-02-26T05:39:31;149030.84;;;4.85;86.34
40920;BME280;26652;50.280;19.026;2024-02-26T05:41:31;149040.66;;;4.89;85.96
40920;BME280;26652;50.280;19.026;2024-02-26T05:43:32;149081.19;;;5.06;84.75
40920;BME280;26652;50.280;19.026;2024-02-26T05:45:33;149105.75;;;5.16;84.51
40920;BME280;26652;50.280;19.026;2024-02-26T05:47:34;149072.59;;;5.02;84.97
40920;BME280;26652;50.280;19.026;2024-02-26T05:49:35;149073.81;;;5.03;85.42
40920;BME280;26652;50.280;19.026;2024-02-26T05:51:35;149091.00;;;5.10;84.99
40920;BME280;26652;50.280;19.026;2024-02-26T05:53:36;149084.88;;;5.07;85.56
40920;BME280;26652;50.280;19.026;2024-02-26T05:55:37;149075.03;;;5.03;85.77
40920;BME280;26652;50.280;19.026;2024-02-26T05:57:38;149076.28;;;5.04;86.89
40920;BME280;26652;50.280;19.026;2024-02-26T05:59:38;149035.75;;;4.87;87.45
40920;BME280;26652;50.280;19.026;2024-02-26T06:01:39;149099.59;;;5.13;86.73
40920;BME280;26652;50.280;19.026;2024-02-26T06:03:40;149126.56;;;5.24;86.65
40920;BME280;26652;50.280;19.026;2024-02-26T06:05:42;149124.09;;;5.23;86.06
40920;BME280;26652;50.280;19.026;2024-02-26T06:07:43;149130.25;;;5.26;85.95
40920;BME280;26652;50.280;19.026;2024-02-26T06:09:44;149124.09;;;5.23;86.21
40920;BME280;26652;50.280;19.026;2024-02-26T06:11:44;149088.53;;;5.09;86.83
40920;BME280;26652;50.280;19.026;2024-02-26T06:13:45;149116.75;;;5.20;86.49
40920;BME280;26652;50.280;19.026;2024-02-26T06:15:46;149169.53;;;5.42;86.10
40920;BME280;26652;50.280;19.026;2024-02-26T06:17:46;149149.91;;;5.34;86.12
40920;BME280;26652;50.280;19.026;2024-02-26T06:19:47;149084.88;;;5.07;87.26
40920;BME280;26652;50.280;19.026;2024-02-26T06:21:48;149202.69;;;5.56;86.44
40920;BME280;26652;50.280;19.026;2024-02-26T06:23:48;149221.13;;;5.64;85.02
40920;BME280;26652;50.280;19.026;2024-02-26T06:25:51;149271.50;;;5.84;85.09
40920;BME280;26652;50.280;19.026;2024-02-26T06:27:52;149351.41;;;6.17;84.04
40920;BME280;26652;50.280;19.026;2024-02-26T06:29:53;149398.03;;;6.37;83.18
40920;BME280;26652;50.280;19.026;2024-02-26T06:31:53;149418.94;;;6.45;81.71
40920;BME280;26652;50.280;19.026;2024-02-26T06:33:54;149527.13;;;6.90;79.25
40920;BME280;26652;50.280;19.026;2024-02-26T06:35:56;149546.78;;;6.98;78.69
40920;BME280;26652;50.280;19.026;2024-02-26T06:37:56;149562.78;;;7.05;77.72
40920;BME280;26652;50.280;19.026;2024-02-26T06:39:57;149594.75;;;7.18;77.13
40920;BME280;26652;50.280;19.026;2024-02-26T06:41:58;149546.78;;;6.98;77.21
40920;BME280;26652;50.280;19.026;2024-02-26T06:44:01;149468.09;;;6.66;78.04
40920;BME280;26652;50.280;19.026;2024-02-26T06:46:02;149450.91;;;6.59;79.13
40920;BME280;26652;50.280;19.026;2024-02-26T06:48:02;149458.28;;;6.62;80.42
40920;BME280;26652;50.280;19.026;2024-02-26T06:50:03;149437.38;;;6.53;80.39
40920;BME280;26652;50.280;19.026;2024-02-26T06:52:04;149454.59;;;6.60;80.11
40920;BME280;26652;50.280;19.026;2024-02-26T06:54:05;149507.44;;;6.82;79.69
40920;BME280;26652;50.280;19.026;2024-02-26T06:56:06;149620.53;;;7.29;78.93
40920;BME280;26652;50.280;19.026;2024-02-26T06:58:08;149726.31;;;7.72;76.96
40920;BME280;26652;50.280;19.026;2024-02-26T07:00:08;149758.28;;;7.85;75.59
40920;BME280;26652;50.280;19.026;2024-02-26T07:02:13;149748.44;;;7.81;75.09
40920;BME280;26652;50.280;19.026;2024-02-26T07:04:14;149759.53;;;7.86;75.92
40920;BME280;26652;50.280;19.026;2024-02-26T07:06:15;149808.75;;;8.06;75.01
40920;BME280;26652;50.280;19.026;2024-02-26T07:08:15;149838.28;;;8.18;74.76
40920;BME280;26652;50.280;19.026;2024-02-26T07:10:16;149854.25;;;8.25;73.56
40920;BME280;26652;50.280;19.026;2024-02-26T07:12:17;149902.28;;;8.45;74.50
40920;BME280;26652;50.280;19.026;2024-02-26T07:14:20;149886.25;;;8.38;73.38
40920;BME280;26652;50.280;19.026;2024-02-26T07:16:21;149930.59;;;8.57;74.03
40920;BME280;26652;50.280;19.026;2024-02-26T07:18:21;149930.59;;;8.57;73.90
40920;BME280;26652;50.280;19.026;2024-02-26T07:20:22;149939.19;;;8.60;73.75
40920;BME280;26652;50.280;19.026;2024-02-26T07:22:23;149903.50;;;8.45;75.34
40920;BME280;26652;50.280;19.026;2024-02-26T07:24:24;149936.75;;;8.59;74.44
40920;BME280;26652;50.280;19.026;2024-02-26T07:26:25;149939.19;;;8.60;73.28
40920;BME280;26652;50.280;19.026;2024-02-26T07:28:26;149951.50;;;8.65;72.36
40920;BME280;26652;50.280;19.026;2024-02-26T07:30:27;149947.81;;;8.64;72.11
40920;BME280;26652;50.280;19.026;2024-02-26T07:32:27;149880.13;;;8.36;73.35
40920;BME280;26652;50.280;19.026;2024-02-26T07:34:28;149907.19;;;8.47;74.17
40920;BME280;26652;50.280;19.026;2024-02-26T07:36:29;149934.28;;;8.58;74.58
40920;BME280;26652;50.280;19.026;2024-02-26T07:38:30;149967.50;;;8.72;74.12
40920;BME280;26652;50.280;19.026;2024-02-26T07:40:30;149967.50;;;8.72;73.23
40920;BME280;26652;50.280;19.026;2024-02-26T07:42:31;150011.84;;;8.90;73.02
40920;BME280;26652;50.280;19.026;2024-02-26T07:44:33;150069.72;;;9.14;73.30
40920;BME280;26652;50.280;19.026;2024-02-26T07:46:34;150041.38;;;9.02;72.20
40920;BME280;26652;50.280;19.026;2024-02-26T07:48:34;150036.47;;;9.00;72.63
40920;BME280;26652;50.280;19.026;2024-02-26T07:50:35;150064.78;;;9.12;72.77
40920;BME280;26652;50.280;19.026;2024-02-26T07:52:36;150123.84;;;9.36;74.03
40920;BME280;26652;50.280;19.026;2024-02-26T07:54:37;150138.63;;;9.42;72.44
40920;BME280;26652;50.280;19.026;2024-02-26T07:56:37;150120.22;;;9.35;72.52
40920;BME280;26652;50.280;19.026;2024-02-26T07:58:38;150133.72;;;9.40;72.41
40920;BME280;26652;50.280;19.026;2024-02-26T08:00:39;150141.09;;;9.43;71.44
40920;BME280;26652;50.280;19.026;2024-02-26T08:02:39;150268.00;;;9.96;72.02
40920;BME280;26652;50.280;19.026;2024-02-26T08:04:40;150307.44;;;10.12;70.70
40920;BME280;26652;50.280;19.026;2024-02-26T08:06:41;150344.44;;;10.27;70.80
40920;BME280;26652;50.280;19.026;2024-02-26T08:08:41;150337.06;;;10.24;69.61
40920;BME280;26652;50.280;19.026;2024-02-26T08:10:42;150406.03;;;10.53;69.53
40920;BME280;26652;50.280;19.026;2024-02-26T08:12:43;150439.31;;;10.66;68.38
40920;BME280;26652;50.280;19.026;2024-02-26T08:14:43;150447.94;;;10.70;68.14
40920;BME280;26652;50.280;19.026;2024-02-26T08:16:44;150459.06;;;10.74;67.29
40920;BME280;26652;50.280;19.026;2024-02-26T08:18:45;150459.06;;;10.74;67.59
40920;BME280;26652;50.280;19.026;2024-02-26T08:20:46;150446.72;;;10.69;69.49
40920;BME280;26652;50.280;19.026;2024-02-26T08:22:47;150435.63;;;10.65;68.78
40920;BME280;26652;50.280;19.026;2024-02-26T08:24:47;150477.53;;;10.82;68.10
40920;BME280;26652;50.280;19.026;2024-02-26T08:26:48;150482.47;;;10.84;67.63
40920;BME280;26652;50.280;19.026;2024-02-26T08:28:48;150525.63;;;11.02;66.80
40920;BME280;26652;50.280;19.026;2024-02-26T08:30:51;150533.03;;;11.05;66.70
40920;BME280;26652;50.280;19.026;2024-02-26T08:32:52;150529.34;;;11.03;68.21
40920;BME280;26652;50.280;19.026;2024-02-26T08:34:53;150554.00;;;11.13;67.66
40920;BME280;26652;50.280;19.026;2024-02-26T08:36:53;150562.63;;;11.17;66.61
40920;BME280;26652;50.280;19.026;2024-02-26T08:38:54;150613.19;;;11.38;66.17
40920;BME280;26652;50.280;19.026;2024-02-26T08:40:55;150657.56;;;11.56;66.10
40920;BME280;26652;50.280;19.026;2024-02-26T08:42:55;150682.25;;;11.66;65.58
40920;BME280;26652;50.280;19.026;2024-02-26T08:44:56;150739.03;;;11.90;65.68
40920;BME280;26652;50.280;19.026;2024-02-26T08:46:57;150757.56;;;11.97;65.15
40920;BME280;26652;50.280;19.026;2024-02-26T08:48:59;150873.56;;;12.45;65.14
40920;BME280;26652;50.280;19.026;2024-02-26T08:51:05;150951.31;;;12.77;63.26
40920;BME280;26652;50.280;19.026;2024-02-26T08:53:05;151006.88;;;13.00;61.37
40920;BME280;26652;50.280;19.026;2024-02-26T08:55:07;151078.53;;;13.29;60.44
40920;BME280;26652;50.280;19.026;2024-02-26T08:57:09;151113.13;;;13.44;59.90
40920;BME280;26652;50.280;19.026;2024-02-26T08:59:10;151183.50;;;13.72;59.70
40920;BME280;26652;50.280;19.026;2024-02-26T09:01:10;151131.66;;;13.51;58.56
40920;BME280;26652;50.280;19.026;2024-02-26T09:03:11;151152.63;;;13.60;58.62
40920;BME280;26652;50.280;19.026;2024-02-26T09:05:12;151251.47;;;14.00;58.19
40920;BME280;26652;50.280;19.026;2024-02-26T09:07:13;151205.75;;;13.82;57.45
40920;BME280;26652;50.280;19.026;2024-02-26T09:09:14;151219.34;;;13.87;57.98
40920;BME280;26652;50.280;19.026;2024-02-26T09:11:15;151247.75;;;13.99;57.46
40920;BME280;26652;50.280;19.026;2024-02-26T09:13:15;151316.97;;;14.27;57.58
40920;BME280;26652;50.280;19.026;2024-02-26T09:15:16;151315.72;;;14.27;56.86
40920;BME280;26652;50.280;19.026;2024-02-26T09:17:17;151331.78;;;14.33;57.46
40920;BME280;26652;50.280;19.026;2024-02-26T09:19:18;151262.59;;;14.05;57.50
40920;BME280;26652;50.280;19.026;2024-02-26T09:21:18;151273.72;;;14.10;57.84
40920;BME280;26652;50.280;19.026;2024-02-26T09:23:23;151206.97;;;13.82;58.51
40920;BME280;26652;50.280;19.026;2024-02-26T09:25:24;151156.31;;;13.61;58.80
40920;BME280;26652;50.280;19.026;2024-02-26T09:27:25;151062.50;;;13.23;59.56
40920;BME280;26652;50.280;19.026;2024-02-26T09:29:25;151099.53;;;13.38;59.98
40920;BME280;26652;50.280;19.026;2024-02-26T09:31:27;151078.53;;;13.29;59.61
40920;BME280;26652;50.280;19.026;2024-02-26T09:33:27;151056.31;;;13.20;60.34
40920;BME280;26652;50.280;19.026;2024-02-26T09:35:28;151111.91;;;13.43;59.91
40920;BME280;26652;50.280;19.026;2024-02-26T09:37:29;151150.16;;;13.59;59.35
40920;BME280;26652;50.280;19.026;2024-02-26T09:39:30;151139.03;;;13.54;60.44
40920;BME280;26652;50.280;19.026;2024-02-26T09:41:30;151172.38;;;13.68;59.43
40920;BME280;26652;50.280;19.026;2024-02-26T09:43:34;151223.03;;;13.89;59.22
40920;BME280;26652;50.280;19.026;2024-02-26T09:45:36;151268.75;;;14.07;59.39
40920;BME280;26652;50.280;19.026;2024-02-26T09:47:37;151276.19;;;14.11;59.88
40920;BME280;26652;50.280;19.026;2024-02-26T09:49:38;151324.38;;;14.30;60.30
40920;BME280;26652;50.280;19.026;2024-02-26T09:51:39;151310.78;;;14.25;59.41
40920;BME280;26652;50.280;19.026;2024-02-26T09:53:43;151302.13;;;14.21;58.09
40920;BME280;26652;50.280;19.026;2024-02-26T09:55:44;151318.19;;;14.28;58.24
40920;BME280;26652;50.280;19.026;2024-02-26T09:57:46;151197.09;;;13.78;58.30
40920;BME280;26652;50.280;19.026;2024-02-26T09:59:48;151214.38;;;13.85;59.19
40920;BME280;26652;50.280;19.026;2024-02-26T10:01:50;151236.63;;;13.94;59.40
40920;BME280;26652;50.280;19.026;2024-02-26T10:03:57;151283.59;;;14.14;58.63
40920;BME280;26652;50.280;19.026;2024-02-26T10:05:58;151256.41;;;14.02;58.60
40920;BME280;26652;50.280;19.026;2024-02-26T10:08:00;151247.75;;;13.99;58.69
40920;BME280;26652;50.280;19.026;2024-02-26T10:10:02;151281.13;;;14.13;57.89
40920;BME280;26652;50.280;19.026;2024-02-26T10:12:04;151300.91;;;14.21;59.09
40920;BME280;26652;50.280;19.026;2024-02-26T10:14:05;151326.84;;;14.31;57.70
40920;BME280;26652;50.280;19.026;2024-02-26T10:16:06;151376.34;;;14.52;58.13
40920;BME280;26652;50.280;19.026;2024-02-26T10:18:07;151465.31;;;14.88;58.27
40920;BME280;26652;50.280;19.026;2024-02-26T10:20:12;151466.56;;;14.89;56.89
40920;BME280;26652;50.280;19.026;2024-02-26T10:22:15;151483.88;;;14.96;56.53
40920;BME280;26652;50.280;19.026;2024-02-26T10:24:15;151492.53;;;14.99;56.16
40920;BME280;26652;50.280;19.026;2024-02-26T10:26:16;151564.25;;;15.29;55.54
40920;BME280;26652;50.280;19.026;2024-02-26T10:28:17;151643.41;;;15.61;54.98
40920;BME280;26652;50.280;19.026;2024-02-26T10:30:20;151817.88;;;16.33;54.39